createdAt,value
2019-03-19T00:00:02.467Z,7.12
2019-03-19T00:05:06.085Z,5.05
2019-03-19T00:10:10.123Z,8.95
2019-03-19T00:15:14.230Z,13.58
2019-03-19T00:20:18.068Z,10.45
2019-03-19T00:25:30.071Z,9.75
2019-03-19T00:30:27.256Z,8.95
2019-03-19T00:35:31.283Z,7.33
2019-03-19T00:40:36.441Z,9.85
2019-03-19T00:45:40.238Z,12.68
2019-03-19T00:50:43.987Z,11.80
2019-03-19T00:55:48.793Z,10.23
2019-03-19T01:00:52.527Z,7.12
2019-03-19T01:05:56.171Z,8.25
2019-03-19T01:11:01.432Z,12.07
2019-03-19T01:16:05.139Z,9.90
2019-03-19T01:21:08.951Z,11.08
2019-03-19T01:26:12.706Z,6.05
2019-03-19T01:31:18.054Z,5.33
2019-03-19T01:36:22.814Z,15.65
2019-03-19T01:41:26.530Z,5.47
2019-03-19T01:46:30.150Z,9.05
2019-03-19T01:51:35.001Z,9.93
2019-03-19T01:56:38.926Z,7.62
2019-03-19T02:01:42.617Z,9.98
2019-03-19T02:06:46.267Z,8.28
2019-03-19T02:11:49.990Z,11.90
2019-03-19T02:16:53.813Z,7.62
2019-03-19T02:21:57.433Z,5.85
2019-03-19T02:27:01.184Z,11.70
2019-03-19T02:32:04.893Z,11.60
2019-03-19T02:37:08.506Z,14.98
2019-03-19T02:42:12.202Z,13.62
2019-03-19T02:47:15.802Z,14.68
2019-03-19T02:52:19.360Z,7.00
2019-03-19T02:57:23.079Z,13.28
2019-03-19T03:02:26.594Z,9.80
2019-03-19T03:07:30.217Z,7.83
2019-03-19T03:12:35.454Z,7.62
2019-03-19T03:17:40.191Z,8.03
2019-03-19T03:22:43.857Z,13.53
2019-03-19T03:27:47.356Z,8.50
2019-03-19T03:32:52.086Z,8.13
2019-03-19T03:37:55.798Z,12.35
2019-03-19T03:42:59.621Z,12.78
2019-03-19T03:48:03.349Z,11.30
2019-03-19T03:53:07.095Z,8.30
2019-03-19T03:58:10.807Z,12.80
2019-03-19T04:03:16.394Z,16.15
2019-03-19T04:08:20.104Z,16.00
2019-03-19T04:13:23.725Z,11.80
2019-03-19T04:18:27.418Z,11.38
2019-03-19T04:23:31.041Z,14.43
2019-03-19T04:28:34.644Z,10.05
2019-03-19T04:33:38.303Z,14.53
2019-03-19T04:38:41.785Z,9.40
2019-03-19T04:43:45.346Z,13.65
2019-03-19T04:48:49.928Z,8.38
2019-03-19T04:53:53.551Z,11.95
2019-03-19T04:58:57.228Z,12.30
2019-03-19T05:04:00.832Z,10.72
2019-03-19T05:09:07.013Z,15.60
2019-03-19T05:14:10.719Z,6.78
2019-03-19T05:19:14.308Z,7.45
2019-03-19T05:24:17.989Z,10.93
2019-03-19T05:29:21.707Z,16.35
2019-03-19T05:34:26.415Z,9.40
2019-03-19T05:39:30.173Z,12.70
2019-03-19T05:44:34.739Z,9.15
2019-03-19T05:49:40.153Z,12.55
2019-03-19T05:54:43.795Z,15.15
2019-03-19T05:59:47.422Z,13.15
2019-03-19T06:04:51.117Z,17.40
2019-03-19T06:09:56.575Z,14.75
2019-03-19T06:15:00.159Z,7.25
2019-03-19T06:20:05.762Z,11.60
2019-03-19T06:25:10.768Z,14.87
2019-03-19T06:30:21.240Z,9.28
2019-03-19T06:35:24.839Z,14.38
2019-03-19T06:40:28.531Z,13.83
2019-03-19T06:45:32.249Z,11.70
2019-03-19T06:50:44.757Z,9.40
2019-03-19T06:55:41.237Z,10.45
2019-03-19T07:00:44.983Z,10.40
2019-03-19T07:05:48.675Z,12.88
2019-03-19T07:10:52.429Z,18.48
2019-03-19T07:15:58.086Z,15.13
2019-03-19T07:21:01.509Z,15.08
2019-03-19T07:26:05.131Z,13.70
2019-03-19T07:31:08.959Z,14.28
2019-03-19T07:36:12.852Z,12.45
2019-03-19T07:41:17.651Z,11.08
2019-03-19T07:46:21.759Z,17.07
2019-03-19T07:51:25.380Z,11.75
2019-03-19T07:56:29.214Z,17.95
2019-03-19T08:01:33.030Z,14.55
2019-03-19T08:06:37.708Z,12.53
2019-03-19T08:11:41.468Z,12.70
2019-03-19T08:16:45.217Z,17.20
2019-03-19T08:21:50.726Z,8.70
2019-03-19T08:26:55.357Z,11.43
2019-03-19T08:31:59.047Z,7.92
2019-03-19T08:37:02.768Z,10.43
2019-03-19T08:42:06.388Z,10.43
2019-03-19T08:47:10.056Z,10.00
2019-03-19T08:52:13.733Z,9.50
2019-03-19T08:57:18.414Z,9.68
2019-03-19T09:02:22.062Z,6.67
2019-03-19T09:07:25.689Z,8.55
2019-03-19T09:12:29.454Z,10.75
2019-03-19T09:17:33.153Z,7.22
2019-03-19T09:22:38.647Z,9.90
2019-03-19T09:27:42.526Z,13.93
2019-03-19T09:32:46.166Z,12.15
2019-03-19T09:37:58.172Z,13.78
2019-03-19T09:42:55.456Z,8.08
2019-03-19T09:48:00.412Z,12.88
2019-03-19T09:53:04.232Z,10.58
2019-03-19T09:58:07.946Z,9.63
2019-03-19T10:03:11.543Z,11.60
2019-03-19T10:08:15.194Z,10.90
2019-03-19T10:13:19.005Z,12.60
2019-03-19T10:18:22.740Z,14.95
2019-03-19T10:23:26.463Z,15.18
2019-03-19T10:28:30.082Z,12.40
2019-03-19T10:33:33.808Z,12.65
2019-03-19T10:38:37.524Z,12.63
2019-03-19T10:43:41.143Z,11.12
2019-03-19T10:48:44.666Z,9.23
2019-03-19T10:53:48.275Z,11.93
2019-03-19T10:58:52.909Z,8.25
2019-03-19T11:03:56.649Z,13.58
2019-03-19T11:09:00.487Z,12.23
2019-03-19T11:14:04.294Z,11.03
2019-03-19T11:19:08.018Z,12.28
2019-03-19T11:24:11.708Z,9.73
2019-03-19T11:29:15.649Z,11.15
2019-03-19T11:34:20.296Z,7.28
2019-03-19T11:39:24.138Z,11.93
2019-03-19T11:44:29.047Z,11.35
2019-03-19T11:49:32.808Z,9.48
2019-03-19T11:54:36.531Z,5.87
2019-03-19T11:59:40.252Z,10.05
2019-03-19T12:04:45.644Z,9.13
2019-03-19T12:09:51.133Z,8.78
2019-03-19T12:14:54.704Z,4.75
2019-03-19T12:19:58.395Z,12.68
2019-03-19T12:25:01.989Z,9.25
2019-03-19T12:30:22.092Z,7.87
2019-03-19T12:35:20.299Z,10.50
2019-03-19T12:40:35.908Z,8.88
2019-03-19T12:45:30.005Z,9.13
2019-03-19T12:50:33.730Z,9.33
2019-03-19T12:55:37.486Z,7.30
2019-03-19T13:00:41.178Z,11.25
2019-03-19T13:05:44.899Z,10.20
2019-03-19T13:10:48.539Z,9.05
2019-03-19T13:15:52.573Z,9.85
2019-03-19T13:20:56.285Z,14.33
2019-03-19T13:26:01.254Z,7.30
2019-03-19T13:31:06.203Z,8.75
2019-03-19T13:36:10.017Z,8.80
2019-03-19T13:41:13.955Z,8.43
2019-03-19T13:46:17.747Z,8.85
2019-03-19T13:51:21.491Z,10.53
2019-03-19T13:56:27.162Z,16.97
2019-03-19T14:01:31.726Z,11.90
2019-03-19T14:06:35.730Z,10.58
2019-03-19T14:11:39.865Z,8.83
2019-03-19T14:16:44.608Z,6.83
2019-03-19T14:21:48.329Z,11.20
2019-03-19T14:26:52.465Z,14.85
2019-03-19T14:31:56.174Z,13.00
2019-03-19T14:37:00.014Z,11.38
2019-03-19T14:42:05.816Z,12.30
2019-03-19T14:47:10.694Z,12.90
2019-03-19T14:52:14.634Z,8.88
2019-03-19T14:57:18.382Z,10.75
2019-03-19T15:02:22.202Z,8.55
2019-03-19T15:07:25.815Z,9.00
2019-03-19T15:12:31.031Z,13.98
2019-03-19T15:17:34.801Z,7.20
2019-03-19T15:22:38.703Z,10.70
2019-03-19T15:27:42.555Z,8.25
2019-03-19T15:32:46.353Z,13.48
2019-03-19T15:37:50.080Z,33.73
2019-03-19T15:42:54.131Z,13.72
2019-03-19T15:47:57.922Z,12.45
2019-03-19T15:53:02.802Z,8.75
2019-03-19T15:58:06.355Z,8.55
2019-03-19T16:03:10.142Z,24.35
2019-03-19T16:08:13.944Z,15.93
2019-03-19T16:13:17.690Z,16.55
2019-03-19T16:18:21.616Z,15.68
2019-03-19T16:23:25.428Z,17.07
2019-03-19T16:28:30.190Z,13.93
2019-03-19T16:33:34.013Z,11.40
2019-03-19T16:38:37.734Z,14.47
2019-03-19T16:43:41.392Z,14.25
2019-03-19T16:48:45.083Z,12.47
2019-03-19T16:53:48.798Z,9.98
2019-03-19T16:58:52.520Z,10.25
2019-03-19T17:03:56.729Z,10.35
2019-03-19T17:09:01.294Z,12.00
2019-03-19T17:14:05.736Z,16.52
2019-03-19T17:19:09.770Z,21.97
2019-03-19T17:24:13.793Z,17.32
2019-03-19T17:29:17.721Z,9.80
2019-03-19T17:34:21.543Z,14.85
2019-03-19T17:39:25.465Z,17.85
2019-03-19T17:44:29.193Z,18.98
2019-03-19T17:49:32.915Z,20.62
2019-03-19T17:54:36.607Z,25.85
2019-03-19T17:59:40.344Z,24.00
2019-03-19T18:04:45.810Z,22.77
2019-03-19T18:09:49.751Z,22.42
2019-03-19T18:14:54.588Z,22.20
2019-03-19T18:19:59.026Z,20.05
2019-03-19T18:25:03.880Z,21.85
2019-03-19T18:30:14.262Z,25.88
2019-03-19T18:35:18.503Z,25.25
2019-03-19T18:40:23.774Z,22.90
2019-03-19T18:45:29.378Z,28.80
2019-03-19T18:50:33.017Z,56.65
2019-03-19T18:55:36.972Z,44.05
2019-03-19T19:00:41.760Z,31.57
2019-03-19T19:05:45.437Z,32.88
2019-03-19T19:10:49.263Z,31.17
2019-03-19T19:15:53.078Z,28.02
2019-03-19T19:20:58.616Z,53.98
2019-03-19T19:26:02.026Z,88.27
2019-03-19T19:31:06.098Z,54.03
2019-03-19T19:36:09.895Z,42.33
2019-03-19T19:41:13.641Z,43.08
2019-03-19T19:46:17.465Z,48.48
2019-03-19T19:51:21.371Z,78.55
2019-03-19T19:56:25.017Z,70.80
2019-03-19T20:01:29.531Z,85.10
2019-03-19T20:06:34.918Z,113.92
2019-03-19T20:11:38.841Z,115.62
2019-03-19T20:16:43.842Z,79.50
2019-03-19T20:21:47.719Z,339.48
2019-03-19T20:26:51.443Z,210.93
2019-03-19T20:31:55.248Z,93.37
2019-03-19T20:36:58.964Z,65.37
2019-03-19T20:42:03.102Z,49.77
2019-03-19T20:47:07.226Z,54.30
2019-03-19T20:52:11.180Z,150.35
2019-03-19T20:57:15.113Z,209.25
2019-03-19T21:02:19.735Z,149.72
2019-03-19T21:07:25.022Z,98.72
2019-03-19T21:12:30.281Z,91.53
2019-03-19T21:17:34.268Z,339.90
2019-03-19T21:22:39.832Z,72.08
2019-03-19T21:27:43.375Z,118.72
2019-03-19T21:32:48.203Z,157.05
2019-03-19T21:37:52.963Z,144.17
2019-03-19T21:42:56.591Z,187.35
2019-03-19T21:48:01.422Z,165.60
2019-03-19T21:53:05.263Z,97.88
2019-03-19T21:58:09.061Z,116.80
2019-03-19T22:03:12.707Z,129.05
2019-03-19T22:08:16.432Z,179.65
2019-03-19T22:13:20.031Z,193.17
2019-03-19T22:18:23.618Z,159.10
2019-03-19T22:23:27.392Z,143.95
2019-03-19T22:28:31.117Z,150.35
2019-03-19T22:33:34.834Z,154.70
2019-03-19T22:38:38.663Z,119.08
2019-03-19T22:43:42.252Z,85.20
2019-03-19T22:48:47.782Z,164.13
2019-03-19T22:53:51.414Z,254.95
2019-03-19T22:58:56.182Z,283.32
2019-03-19T23:03:59.933Z,368.77
2019-03-19T23:09:04.496Z,494.88
2019-03-19T23:14:08.196Z,483.90
2019-03-19T23:19:12.019Z,288.62
2019-03-19T23:24:15.687Z,255.52
2019-03-19T23:29:19.223Z,308.52
2019-03-19T23:34:24.717Z,208.90
2019-03-19T23:39:28.385Z,156.02
2019-03-19T23:44:32.041Z,177.32
2019-03-19T23:49:36.752Z,205.15
2019-03-19T23:54:42.636Z,132.60
2019-03-19T23:59:45.995Z,138.05
